Time;durP1;ratioP1;P1;durP2;ratioP2;P2;SDS_P1;SDS_P2;PMS_P1;PMS_P2;Temp;Humidity;BMP_temperature;BMP_pressure;BME280_temperature;BME280_humidity;BME280_pressure;Samples;Min_cycle;Max_cycle;Signal;HPM_P1;HPM_P2
2023/04/05 00:01:39;;;;;;;3.25;1.08;;;11.70;44.00;;;;;;6370141;22;19999;-78
2023/04/05 00:04:06;;;;;;;4.45;1.13;;;11.70;43.80;;;;;;6369963;22;20332;-78
2023/04/05 00:06:32;;;;;;;1.95;1.27;;;11.70;43.80;;;;;;6370108;22;20525;-78
2023/04/05 00:08:58;;;;;;;3.58;1.35;;;11.80;43.50;;;;;;6370553;22;20073;-78
2023/04/05 00:11:25;;;;;;;2.53;1.20;;;11.70;43.20;;;;;;6370286;22;20120;-78
2023/04/05 00:13:51;;;;;;;1.75;1.15;;;11.80;43.00;;;;;;6370351;22;20093;-77
2023/04/05 00:16:18;;;;;;;3.22;1.20;;;11.80;43.00;;;;;;6370061;22;20029;-78
2023/04/05 00:18:45;;;;;;;3.30;1.35;;;11.80;42.80;;;;;;6369700;22;20006;-78
2023/04/05 00:21:14;;;;;;;2.67;1.45;;;11.80;42.60;;;;;;6370942;22;19998;-78
2023/04/05 00:23:40;;;;;;;3.00;1.50;;;11.70;42.30;;;;;;6370018;22;20358;-77
2023/04/05 00:26:06;;;;;;;2.42;1.33;;;11.80;43.10;;;;;;6369684;22;20555;-77
2023/04/05 00:28:33;;;;;;;4.72;1.40;;;11.70;42.90;;;;;;6370217;22;20029;-77
2023/04/05 00:30:59;;;;;;;3.25;1.42;;;11.70;43.00;;;;;;6370256;22;20412;-78
2023/04/05 00:33:24;;;;;;;2.33;1.08;;;11.70;42.90;;;;;;6370275;22;20013;-78
2023/04/05 00:35:50;;;;;;;2.90;1.60;;;11.80;43.10;;;;;;6370252;22;20473;-78
2023/04/05 00:38:16;;;;;;;4.95;1.55;;;11.80;43.10;;;;;;6369789;22;19998;-76
2023/04/05 00:40:41;;;;;;;3.00;1.38;;;11.80;43.20;;;;;;6368646;22;20387;-77
2023/04/05 00:43:07;;;;;;;3.63;1.23;;;11.80;43.30;;;;;;6370032;22;20073;-77
2023/04/05 00:45:33;;;;;;;4.35;1.50;;;11.70;43.20;;;;;;6369588;22;20736;-76
2023/04/05 00:47:59;;;;;;;2.30;1.33;;;11.70;42.60;;;;;;6369735;22;19994;-77
2023/04/05 00:50:29;;;;;;;3.45;1.60;;;11.70;43.00;;;;;;6369371;22;20380;-76
2023/04/05 00:52:56;;;;;;;2.55;1.55;;;11.70;42.30;;;;;;6370042;22;20069;-78
2023/04/05 00:55:22;;;;;;;2.30;1.30;;;11.70;42.90;;;;;;6369282;22;20010;-77
2023/04/05 00:57:48;;;;;;;2.17;1.20;;;11.70;43.00;;;;;;6370245;22;20006;-76
2023/04/05 01:00:15;;;;;;;1.60;1.00;;;11.70;43.10;;;;;;6369626;22;20332;-77
2023/04/05 01:02:44;;;;;;;3.75;1.58;;;11.70;43.50;;;;;;6370096;22;20009;-77
2023/04/05 01:05:29;;;;;;;2.22;1.20;;;11.70;43.60;;;;;;6368175;22;20033;-77
2023/04/05 01:08:17;;;;;;;1.38;1.10;;;11.70;43.50;;;;;;6369334;22;19994;-77
2023/04/05 01:10:49;;;;;;;4.85;1.30;;;11.80;43.50;;;;;;6369631;22;20006;-78
2023/04/05 01:13:16;;;;;;;4.60;1.42;;;11.70;43.70;;;;;;6369483;22;20002;-77
2023/04/05 01:15:42;;;;;;;3.10;1.40;;;11.70;44.00;;;;;;6369956;22;19998;-77
2023/04/05 01:18:10;;;;;;;4.25;1.33;;;11.70;44.30;;;;;;6369532;22;20002;-78
2023/04/05 01:20:43;;;;;;;4.53;1.52;;;11.60;44.40;;;;;;6370312;22;19998;-78
2023/04/05 01:23:36;;;;;;;2.65;1.33;;;11.60;44.50;;;;;;6370130;22;20317;-78
2023/04/05 01:26:16;;;;;;;2.90;1.50;;;11.60;44.60;;;;;;6357318;22;20006;-77
2023/04/05 01:29:02;;;;;;;;;;;11.60;44.60;;;;;;6371462;22;20069;-78
2023/04/05 01:31:50;;;;;;;4.35;1.33;;;11.50;43.90;;;;;;6370150;22;19902;-78
2023/04/05 01:34:21;;;;;;;2.38;1.60;;;11.50;44.30;;;;;;6370401;22;19999;-78
2023/04/05 01:36:55;;;;;;;4.78;1.60;;;11.40;44.30;;;;;;6370674;22;20009;-77
2023/04/05 01:39:23;;;;;;;2.35;1.25;;;11.40;44.40;;;;;;6371187;22;20002;-78
2023/04/05 01:41:49;;;;;;;4.65;1.60;;;11.40;44.50;;;;;;6370882;22;20026;-78
2023/04/05 01:44:15;;;;;;;6.13;1.80;;;11.30;44.40;;;;;;6370798;22;20005;-77
2023/04/05 01:46:40;;;;;;;3.78;1.60;;;11.30;44.40;;;;;;6370580;22;20006;-78
2023/04/05 01:49:06;;;;;;;4.00;1.30;;;11.20;44.30;;;;;;6370199;22;20004;-77
2023/04/05 01:51:32;;;;;;;6.57;1.83;;;11.20;44.40;;;;;;6370073;22;20021;-77
2023/04/05 01:53:57;;;;;;;4.28;1.45;;;11.20;44.40;;;;;;6369990;22;20047;-77
2023/04/05 01:56:23;;;;;;;3.83;1.85;;;11.20;44.50;;;;;;6368291;22;20034;-77
2023/04/05 01:58:49;;;;;;;4.47;1.70;;;11.20;44.50;;;;;;6369428;22;19998;-77
2023/04/05 02:01:15;;;;;;;6.55;1.60;;;11.20;44.40;;;;;;6368600;22;19998;-77
2023/04/05 02:03:40;;;;;;;5.43;1.88;;;11.10;44.40;;;;;;6369527;22;19998;-77
2023/04/05 02:06:06;;;;;;;4.53;1.70;;;11.00;43.70;;;;;;6368525;22;20005;-77
2023/04/05 02:08:32;;;;;;;4.32;1.70;;;11.00;44.10;;;;;;6369895;22;19994;-77
2023/04/05 02:10:57;;;;;;;9.07;1.90;;;11.00;43.70;;;;;;6369025;22;20022;-77
2023/04/05 02:13:24;;;;;;;4.80;1.92;;;11.00;44.20;;;;;;6368846;22;20021;-77
2023/04/05 02:15:50;;;;;;;3.47;1.90;;;11.00;44.20;;;;;;6369087;22;20293;-77
2023/04/05 02:18:21;;;;;;;4.20;1.90;;;11.00;44.20;;;;;;6369341;22;20006;-77
2023/04/05 02:20:50;;;;;;;4.07;2.17;;;10.90;43.60;;;;;;6369530;22;20075;-77
2023/04/05 02:23:19;;;;;;;6.47;1.90;;;10.90;43.80;;;;;;6368378;22;20024;-77
2023/04/05 02:25:45;;;;;;;2.55;1.80;;;10.80;43.70;;;;;;6368623;22;19998;-78
2023/04/05 02:28:11;;;;;;;6.43;1.50;;;10.80;43.60;;;;;;6368970;22;20478;-78
2023/04/05 02:30:37;;;;;;;3.88;1.63;;;10.80;44.00;;;;;;6367183;22;20380;-78
2023/04/05 02:33:02;;;;;;;2.90;1.80;;;10.80;43.90;;;;;;6369019;22;19994;-78
2023/04/05 02:35:28;;;;;;;4.97;1.48;;;10.70;43.40;;;;;;6369359;22;20048;-78
2023/04/05 02:37:55;;;;;;;2.38;1.40;;;10.70;42.90;;;;;;6368524;22;20060;-77
2023/04/05 02:40:21;;;;;;;2.17;1.70;;;10.70;43.50;;;;;;6369196;22;19998;-77
2023/04/05 02:42:47;;;;;;;3.08;1.60;;;;;;;;;;6369629;22;20314;-76
2023/04/05 02:45:14;;;;;;;4.40;1.45;;;10.70;42.70;;;;;;6367181;22;20006;-76
2023/04/05 02:47:44;;;;;;;2.50;1.55;;;10.70;42.70;;;;;;6367490;22;20499;-76
2023/04/05 02:50:10;;;;;;;;;;;10.70;43.00;;;;;;6369341;22;20001;-77
2023/04/05 02:52:42;;;;;;;4.88;1.60;;;10.70;42.20;;;;;;6369681;22;19899;-76
2023/04/05 02:55:09;;;;;;;5.03;1.60;;;10.70;42.10;;;;;;6367915;22;20096;-77
2023/04/05 02:57:34;;;;;;;3.38;1.35;;;10.70;42.50;;;;;;6368184;22;20030;-77
2023/04/05 03:00:00;;;;;;;5.65;1.88;;;10.70;42.40;;;;;;6369158;22;20362;-77
2023/04/05 03:02:26;;;;;;;2.63;1.80;;;10.70;42.30;;;;;;6368733;22;20002;-77
2023/04/05 03:04:52;;;;;;;4.32;1.85;;;10.70;42.10;;;;;;6368547;22;20007;-78
2023/04/05 03:07:18;;;;;;;3.85;1.70;;;10.70;42.00;;;;;;6368092;22;20438;-79
2023/04/05 03:09:46;;;;;;;4.22;1.63;;;10.70;41.70;;;;;;6368618;22;19995;-78
2023/04/05 03:12:12;;;;;;;3.22;1.42;;;10.70;41.30;;;;;;6369075;22;19990;-78
2023/04/05 03:14:39;;;;;;;4.18;1.98;;;10.80;41.80;;;;;;6368224;22;20093;-77
2023/04/05 03:17:05;;;;;;;5.53;2.03;;;10.70;41.50;;;;;;6368473;22;20006;-78
2023/04/05 03:19:31;;;;;;;3.78;1.80;;;10.70;41.80;;;;;;6369766;22;20005;-78
2023/04/05 03:21:57;;;;;;;4.88;1.95;;;10.70;42.20;;;;;;6369036;22;20482;-78
2023/04/05 03:24:23;;;;;;;4.00;2.08;;;10.60;42.20;;;;;;6366889;22;20003;-77
2023/04/05 03:26:49;;;;;;;5.55;2.38;;;10.60;42.10;;;;;;6369702;22;20006;-77
2023/04/05 03:29:16;;;;;;;5.70;2.15;;;10.50;41.60;;;;;;6370313;22;20002;-77
2023/04/05 03:31:42;;;;;;;3.47;1.90;;;10.50;42.10;;;;;;6370097;22;20046;-77
2023/04/05 03:34:08;;;;;;;3.50;2.22;;;10.50;42.30;;;;;;6370017;22;20041;-78
2023/04/05 03:36:41;;;;;;;4.35;1.90;;;10.50;41.70;;;;;;6367313;22;20002;-77
2023/04/05 03:39:11;;;;;;;5.20;1.95;;;10.50;42.30;;;;;;6369627;22;20400;-78
2023/04/05 03:41:38;;;;;;;4.15;1.90;;;10.50;42.30;;;;;;6369841;22;20010;-78
2023/04/05 03:44:04;;;;;;;4.50;1.65;;;10.50;42.00;;;;;;6369931;22;20473;-78
2023/04/05 03:46:30;;;;;;;3.28;2.10;;;10.40;41.20;;;;;;6369252;22;20001;-78
2023/04/05 03:48:57;;;;;;;3.15;1.80;;;10.50;41.60;;;;;;6368937;22;19995;-78
2023/04/05 03:51:23;;;;;;;3.28;1.80;;;10.40;41.50;;;;;;6369119;22;20046;-78
2023/04/05 03:53:52;;;;;;;4.07;1.58;;;10.40;41.60;;;;;;6369874;22;20034;-78
2023/04/05 03:56:18;;;;;;;4.28;2.15;;;10.30;41.70;;;;;;6367187;22;20063;-78
2023/04/05 03:58:44;;;;;;;3.55;1.83;;;10.30;41.70;;;;;;6366750;22;20090;-77
2023/04/05 04:01:11;;;;;;;4.32;1.98;;;10.20;41.80;;;;;;6368099;22;20018;-77
2023/04/05 04:03:37;;;;;;;4.63;2.13;;;10.20;42.10;;;;;;6368504;22;20052;-77
2023/04/05 04:06:03;;;;;;;3.38;1.67;;;10.20;42.10;;;;;;6367450;22;19998;-77
2023/04/05 04:08:29;;;;;;;4.72;1.88;;;10.20;42.00;;;;;;6368014;22;20006;-77
2023/04/05 04:10:55;;;;;;;5.00;1.98;;;10.10;42.00;;;;;;6368337;22;19999;-77
2023/04/05 04:13:20;;;;;;;2.22;1.42;;;10.10;42.10;;;;;;6367070;22;20105;-77
2023/04/05 04:15:46;;;;;;;4.03;2.03;;;10.10;42.10;;;;;;6367271;22;20073;-78
2023/04/05 04:18:12;;;;;;;3.65;1.98;;;10.10;42.10;;;;;;6368737;22;20028;-77
2023/04/05 04:20:38;;;;;;;2.72;1.73;;;10.10;42.30;;;;;;6368025;22;20005;-77
2023/04/05 04:23:05;;;;;;;2.90;1.77;;;10.10;42.30;;;;;;6367733;22;20009;-77
2023/04/05 04:25:31;;;;;;;4.97;1.85;;;10.10;42.30;;;;;;6366838;22;19998;-77
2023/04/05 04:27:57;;;;;;;3.90;1.95;;;10.10;42.10;;;;;;6367927;22;20073;-77
2023/04/05 04:30:23;;;;;;;4.20;1.88;;;10.10;42.10;;;;;;6367751;22;20007;-77
2023/04/05 04:32:58;;;;;;;3.20;1.42;;;10.10;42.10;;;;;;6368351;22;20005;-77
2023/04/05 04:35:28;;;;;;;3.45;1.90;;;10.20;42.00;;;;;;6366515;22;20006;-77
2023/04/05 04:38:01;;;;;;;2.80;1.80;;;10.10;42.20;;;;;;6366921;22;20077;-77
2023/04/05 04:40:46;;;;;;;3.67;2.20;;;10.20;42.30;;;;;;6369126;22;20040;-78
2023/04/05 04:43:26;;;;;;;3.28;1.90;;;10.10;41.40;;;;;;6369618;22;20126;-78
2023/04/05 04:45:53;;;;;;;2.65;1.60;;;10.10;41.80;;;;;;6369264;22;19994;-78
2023/04/05 04:48:19;;;;;;;3.78;1.73;;;10.10;41.90;;;;;;6369757;22;20432;-78
2023/04/05 04:50:47;;;;;;;4.93;2.35;;;10.10;41.90;;;;;;6370148;22;20020;-78
2023/04/05 04:53:16;;;;;;;5.55;2.00;;;10.10;41.80;;;;;;6370211;22;20029;-84
2023/04/05 04:55:41;;;;;;;3.88;1.60;;;10.10;41.80;;;;;;6369867;22;20002;-86
2023/04/05 04:58:12;;;;;;;6.47;1.67;;;10.00;41.50;;;;;;6369927;22;20437;-85
2023/04/05 05:00:39;;;;;;;3.63;1.80;;;10.00;42.00;;;;;;6370566;22;20054;-86
2023/04/05 05:03:07;;;;;;;7.07;2.00;;;10.10;41.50;;;;;;6370561;22;19998;-85
2023/04/05 05:05:33;;;;;;;2.28;1.60;;;10.10;42.00;;;;;;6369850;22;20481;-85
2023/04/05 05:07:59;;;;;;;5.75;1.98;;;10.10;42.00;;;;;;6369930;22;19995;-86
2023/04/05 05:10:24;;;;;;;5.53;1.88;;;10.00;42.00;;;;;;6368877;22;20396;-88
2023/04/05 05:12:50;;;;;;;2.58;1.70;;;10.00;42.60;;;;;;6369464;22;20002;-89
2023/04/05 05:15:17;;;;;;;5.82;1.83;;;;;;;;;;6370016;22;20454;-87
2023/04/05 05:17:43;;;;;;;4.43;1.92;;;9.90;41.60;;;;;;6371032;22;19999;-88
2023/04/05 05:20:10;;;;;;;2.83;1.90;;;9.90;42.10;;;;;;6371013;22;20002;-88
2023/04/05 05:22:37;;;;;;;3.70;1.75;;;9.90;41.80;;;;;;6369810;22;20006;-88
2023/04/05 05:25:05;;;;;;;3.45;1.65;;;9.90;41.90;;;;;;6371437;22;20006;-88
2023/04/05 05:27:30;;;;;;;3.70;1.80;;;9.90;41.90;;;;;;6371544;22;20002;-88
2023/04/05 05:29:56;;;;;;;4.78;2.17;;;9.90;42.50;;;;;;6371267;22;19998;-88
2023/04/05 05:32:22;;;;;;;4.43;2.17;;;10.00;42.70;;;;;;6367765;22;19998;-82
2023/04/05 05:34:48;;;;;;;4.43;1.80;;;10.00;42.60;;;;;;6368491;22;19998;-82
2023/04/05 05:37:15;;;;;;;4.47;2.22;;;9.90;42.50;;;;;;6369345;22;20053;-82
2023/04/05 05:39:41;;;;;;;8.65;2.63;;;10.00;43.10;;;;;;6369424;22;20033;-85
2023/04/05 05:42:07;;;;;;;5.55;2.15;;;9.90;43.00;;;;;;6369149;22;20002;-84
2023/04/05 05:44:32;;;;;;;5.85;2.25;;;10.00;43.30;;;;;;6369488;22;20434;-85
2023/04/05 05:46:58;;;;;;;2.90;1.88;;;10.00;42.70;;;;;;6369654;22;20305;-76
2023/04/05 05:49:24;;;;;;;8.13;2.60;;;10.00;43.60;;;;;;6369010;22;20028;-77
2023/04/05 05:51:51;;;;;;;7.03;2.40;;;10.10;43.20;;;;;;6368277;22;20025;-77
2023/04/05 05:54:17;;;;;;;4.55;2.30;;;10.10;43.00;;;;;;6368436;22;19998;-76
2023/04/05 05:56:43;;;;;;;6.75;2.70;;;10.20;42.90;;;;;;6369694;22;20075;-76
2023/04/05 05:59:09;;;;;;;2.78;1.90;;;10.10;43.00;;;;;;6369073;22;19998;-76
2023/04/05 06:01:41;;;;;;;4.43;1.95;;;10.20;43.50;;;;;;6368775;22;19998;-76
2023/04/05 06:04:07;;;;;;;3.33;2.15;;;10.20;43.30;;;;;;6367370;22;20003;-76
2023/04/05 06:06:34;;;;;;;3.78;2.05;;;10.20;43.70;;;;;;6368051;22;20742;-76
2023/04/05 06:08:59;;;;;;;6.32;2.20;;;10.20;43.60;;;;;;6369227;22;20405;-77
2023/04/05 06:11:25;;;;;;;3.90;2.22;;;10.20;43.50;;;;;;6369428;22;19998;-80
2023/04/05 06:13:53;;;;;;;4.32;2.20;;;;;;;;;;6370588;22;20014;-76
2023/04/05 06:16:20;;;;;;;4.70;1.90;;;10.20;43.50;;;;;;6368891;22;20007;-76
2023/04/05 06:18:48;;;;;;;5.72;2.20;;;10.30;45.10;;;;;;6369304;22;20435;-77
2023/04/05 06:21:14;;;;;;;3.42;2.20;;;10.30;44.50;;;;;;6369662;22;20033;-75
2023/04/05 06:23:41;;;;;;;6.50;2.17;;;10.40;44.60;;;;;;6365180;22;20005;-81
2023/04/05 06:26:36;;;;;;;4.35;2.40;;;10.40;44.60;;;;;;6370246;22;20368;-75
2023/04/05 06:29:02;;;;;;;4.72;2.15;;;10.40;45.00;;;;;;6345619;22;20370;-76
2023/04/05 06:31:33;;;;;;;3.60;2.22;;;10.30;45.60;;;;;;6367407;22;20134;-75
2023/04/05 06:33:59;;;;;;;4.22;2.22;;;10.30;45.40;;;;;;6362710;22;20389;-76
2023/04/05 06:36:25;;;;;;;2.42;1.92;;;10.40;45.60;;;;;;6365890;22;20410;-76
2023/04/05 06:38:52;;;;;;;2.70;1.83;;;10.30;45.80;;;;;;6365190;22;20159;-77
2023/04/05 06:41:17;;;;;;;3.65;2.05;;;10.30;45.50;;;;;;6364485;22;20029;-75
2023/04/05 06:43:43;;;;;;;5.32;1.90;;;10.30;45.90;;;;;;6366320;22;19998;-75
2023/04/05 06:46:11;;;;;;;8.32;2.58;;;10.40;45.90;;;;;;6366533;22;20005;-80
2023/04/05 06:48:37;;;;;;;4.82;2.33;;;10.40;46.40;;;;;;6368621;22;20396;-79
2023/04/05 06:51:03;;;;;;;6.10;2.35;;;10.40;46.20;;;;;;6368417;22;20360;-80
2023/04/05 06:53:30;;;;;;;5.18;2.33;;;10.50;46.20;;;;;;6368277;22;20006;-80
2023/04/05 06:55:57;;;;;;;4.68;2.28;;;10.50;46.20;;;;;;6369419;22;19995;-81
2023/04/05 06:58:23;;;;;;;3.78;2.17;;;10.60;46.40;;;;;;6367630;22;20449;-81
2023/04/05 07:00:50;;;;;;;5.50;2.60;;;10.60;47.00;;;;;;6366516;22;20359;-81
2023/04/05 07:03:16;;;;;;;3.78;2.00;;;10.60;47.30;;;;;;6366651;22;19998;-81
2023/04/05 07:05:52;;;;;;;7.07;2.38;;;10.70;47.50;;;;;;6366971;22;20070;-81
2023/04/05 07:08:19;;;;;;;7.38;2.50;;;10.70;48.00;;;;;;6367324;22;20008;-76
2023/04/05 07:10:46;;;;;;;8.75;2.40;;;;;;;;;;6365795;22;19999;-75
2023/04/05 07:13:11;;;;;;;6.47;2.92;;;10.70;47.90;;;;;;6365982;22;20109;-75
2023/04/05 07:15:37;;;;;;;5.50;2.45;;;10.70;48.10;;;;;;6367292;22;20413;-75
2023/04/05 07:18:03;;;;;;;10.32;2.70;;;10.80;48.90;;;;;;6366158;22;20455;-75
2023/04/05 07:20:28;;;;;;;3.70;2.35;;;10.90;48.90;;;;;;6365561;22;20003;-78
2023/04/05 07:22:54;;;;;;;8.20;2.20;;;11.00;49.00;;;;;;6367721;22;20332;-80
2023/04/05 07:25:23;;;;;;;5.20;2.10;;;11.10;49.00;;;;;;6365707;22;20093;-79
2023/04/05 07:27:49;;;;;;;5.45;2.20;;;11.10;49.40;;;;;;6365877;22;20002;-82
2023/04/05 07:30:28;;;;;;;4.47;2.05;;;11.20;49.30;;;;;;6368759;22;20369;-84
2023/04/05 07:32:54;;;;;;;6.85;2.30;;;11.40;52.40;;;;;;6370529;22;19994;-80
2023/04/05 07:35:19;;;;;;;3.35;1.95;;;11.50;50.40;;;;;;6373489;22;19999;-80
2023/04/05 07:37:45;;;;;;;5.88;1.83;;;11.60;50.60;;;;;;6368330;22;19998;-81
2023/04/05 07:40:11;;;;;;;6.95;2.85;;;11.60;50.40;;;;;;6368787;22;20013;-81
2023/04/05 07:42:38;;;;;;;4.30;1.90;;;11.80;50.10;;;;;;6377073;22;20416;-81
2023/04/05 07:45:04;;;;;;;6.90;2.22;;;11.80;49.30;;;;;;6380446;22;20038;-81
2023/04/05 07:47:33;;;;;;;4.93;2.13;;;11.90;48.60;;;;;;6381244;22;20014;-81
2023/04/05 07:49:59;;;;;;;3.28;1.55;;;12.00;47.60;;;;;;6376234;22;20017;-82
2023/04/05 07:52:25;;;;;;;2.53;1.50;;;12.00;46.70;;;;;;6377073;22;20010;-81
2023/04/05 07:54:51;;;;;;;4.55;1.90;;;12.20;46.50;;;;;;6376637;22;20005;-81
2023/04/05 07:57:20;;;;;;;4.03;1.73;;;12.20;46.00;;;;;;6391341;22;19998;-81
2023/04/05 07:59:49;;;;;;;3.38;1.55;;;12.30;46.00;;;;;;6373893;22;20006;-80
2023/04/05 08:02:15;;;;;;;5.38;2.25;;;12.30;46.20;;;;;;6373216;22;20432;-81
2023/04/05 08:04:41;;;;;;;3.50;1.70;;;12.40;45.60;;;;;;6371042;22;20440;-81
2023/04/05 08:07:07;;;;;;;6.15;1.75;;;12.50;45.50;;;;;;6371523;22;20006;-79
2023/04/05 08:09:32;;;;;;;3.75;1.52;;;12.50;45.20;;;;;;6376547;22;20005;-80
2023/04/05 08:12:00;;;;;;;2.45;1.50;;;12.50;44.10;;;;;;6375382;22;20030;-79
2023/04/05 08:14:26;;;;;;;3.38;1.60;;;12.50;43.80;;;;;;6372122;22;20014;-79
2023/04/05 08:16:51;;;;;;;2.90;1.58;;;12.60;43.20;;;;;;6368216;22;20009;-81
2023/04/05 08:19:17;;;;;;;3.80;1.67;;;12.70;43.60;;;;;;6374380;22;20010;-81
2023/04/05 08:21:43;;;;;;;3.67;1.90;;;12.70;43.70;;;;;;6369245;22;20014;-81
2023/04/05 08:24:08;;;;;;;4.28;1.95;;;12.90;44.00;;;;;;6372032;22;20030;-81
2023/04/05 08:26:34;;;;;;;3.08;1.63;;;13.10;42.30;;;;;;6371829;22;20013;-81
2023/04/05 08:29:00;;;;;;;2.97;1.65;;;13.10;42.70;;;;;;6372932;22;20452;-76
2023/04/05 08:31:26;;;;;;;4.28;1.75;;;13.20;42.30;;;;;;6370989;22;20428;-76
2023/04/05 08:33:51;;;;;;;5.50;1.70;;;13.20;42.30;;;;;;6370508;22;20071;-76
2023/04/05 08:36:17;;;;;;;4.10;1.92;;;13.30;41.00;;;;;;6370030;22;20006;-76
2023/04/05 08:38:43;;;;;;;4.35;1.80;;;13.30;40.60;;;;;;6369237;22;20002;-79
2023/04/05 08:41:22;;;;;;;6.03;1.75;;;13.30;41.30;;;;;;6370018;22;20093;-79
2023/04/05 08:44:01;;;;;;;2.75;1.60;;;13.20;41.10;;;;;;6370246;22;20081;-76
2023/04/05 08:46:30;;;;;;;3.47;2.10;;;13.20;41.30;;;;;;6368763;22;20463;-79
2023/04/05 08:49:00;;;;;;;3.67;1.77;;;13.30;41.70;;;;;;6370113;22;20079;-79
2023/04/05 08:51:42;;;;;;;5.30;1.83;;;13.20;40.90;;;;;;6369671;22;19998;-79
2023/04/05 08:54:08;;;;;;;4.28;1.80;;;13.30;41.90;;;;;;6368320;22;20003;-80
2023/04/05 08:56:35;;;;;;;3.47;1.88;;;13.40;40.30;;;;;;6370197;22;20005;-80
2023/04/05 08:59:06;;;;;;;3.28;1.70;;;13.70;40.80;;;;;;6369500;22;20006;-80
2023/04/05 09:01:37;;;;;;;6.05;2.15;;;13.80;40.80;;;;;;6370013;22;20016;-76
2023/04/05 09:04:13;;;;;;;4.18;1.50;;;14.10;40.80;;;;;;6369208;22;20051;-76
2023/04/05 09:06:39;;;;;;;3.85;2.47;;;14.10;41.20;;;;;;6367110;22;20045;-79
2023/04/05 09:09:07;;;;;;;4.03;1.75;;;14.20;40.30;;;;;;6369183;22;20001;-79
2023/04/05 09:11:33;;;;;;;5.13;1.98;;;14.30;39.30;;;;;;6369490;22;20006;-79
2023/04/05 09:14:05;;;;;;;3.60;1.48;;;14.40;40.10;;;;;;6369271;22;20014;-79
2023/04/05 09:16:35;;;;;;;3.40;1.85;;;14.40;40.60;;;;;;6369685;22;20009;-81
2023/04/05 09:19:01;;;;;;;3.20;1.58;;;14.60;39.00;;;;;;6370073;22;20002;-79
2023/04/05 09:21:28;;;;;;;38.00;26.90;;;14.60;39.80;;;;;;6370178;22;20002;-79
2023/04/05 09:23:54;;;;;;;79.15;47.67;;;14.70;39.90;;;;;;6369515;22;20022;-79
2023/04/05 09:26:24;;;;;;;58.75;31.05;;;14.80;39.80;;;;;;6368113;22;20010;-81
2023/04/05 09:28:50;;;;;;;;;;;15.00;39.60;;;;;;6368955;22;20359;-77
2023/04/05 09:31:35;;;;;;;12.15;5.90;;;15.20;42.90;;;;;;6369964;22;19898;-80
2023/04/05 09:34:03;;;;;;;3.08;2.15;;;15.50;39.70;;;;;;6368935;22;19998;-77
2023/04/05 09:36:29;;;;;;;4.50;2.38;;;15.50;41.10;;;;;;6369688;22;20009;-75
2023/04/05 09:39:08;;;;;;;3.42;2.05;;;15.60;40.60;;;;;;6369257;22;20432;-75
2023/04/05 09:41:36;;;;;;;3.97;1.90;;;;;;;;;;6369930;22;20007;-75
2023/04/05 09:44:02;;;;;;;3.90;1.73;;;15.60;38.50;;;;;;6367270;22;20083;-76
2023/04/05 09:46:33;;;;;;;4.43;2.53;;;15.60;38.70;;;;;;6367497;22;19999;-76
2023/04/05 09:49:02;;;;;;;3.33;2.03;;;15.70;38.10;;;;;;6367534;22;20017;-76
2023/04/05 09:51:37;;;;;;;3.63;1.90;;;15.70;38.40;;;;;;6369903;22;20013;-77
2023/04/05 09:54:06;;;;;;;5.82;1.77;;;15.70;38.40;;;;;;6369840;22;20082;-80
2023/04/05 09:56:37;;;;;;;4.05;1.83;;;15.70;38.00;;;;;;6369732;22;20006;-76
2023/04/05 09:59:10;;;;;;;3.58;2.22;;;15.70;37.90;;;;;;6369429;22;20028;-76
2023/04/05 10:01:36;;;;;;;2.65;1.92;;;15.80;38.10;;;;;;6369001;22;20014;-80
2023/04/05 10:04:02;;;;;;;2.78;1.70;;;15.80;38.60;;;;;;6368924;22;20332;-80
2023/04/05 10:06:39;;;;;;;4.00;1.92;;;15.80;38.80;;;;;;6369971;22;19998;-80
2023/04/05 10:09:05;;;;;;;2.85;1.58;;;16.00;39.10;;;;;;6371012;22;19998;-80
2023/04/05 10:11:33;;;;;;;5.70;2.10;;;16.10;38.60;;;;;;6371199;22;20338;-79
2023/04/05 10:14:03;;;;;;;9.68;2.60;;;16.20;38.40;;;;;;6370533;22;20061;-76
2023/04/05 10:16:33;;;;;;;3.50;1.88;;;16.20;36.80;;;;;;6370273;22;20077;-78
2023/04/05 10:18:59;;;;;;;7.07;1.75;;;16.20;38.20;;;;;;6370240;22;20014;-76
2023/04/05 10:21:32;;;;;;;3.00;2.00;;;16.20;38.50;;;;;;6369672;22;20005;-75
2023/04/05 10:24:35;;;;;;;3.78;1.88;;;16.30;37.80;;;;;;6369636;22;19994;-76
2023/04/05 10:27:32;;;;;;;5.70;2.38;;;16.60;37.60;;;;;;6369159;22;19995;-76
2023/04/05 10:30:07;;;;;;;3.40;1.80;;;16.60;37.50;;;;;;6368481;22;19998;-76
2023/04/05 10:33:06;;;;;;;5.75;1.80;;;16.70;38.00;;;;;;6370162;22;20293;-77
2023/04/05 10:36:09;;;;;;;4.20;1.85;;;16.70;37.80;;;;;;6369921;22;20077;-75
2023/04/05 10:38:42;;;;;;;8.05;1.85;;;16.70;38.20;;;;;;6368177;22;20328;-76
2023/04/05 10:41:11;;;;;;;4.93;2.05;;;16.60;38.00;;;;;;6368914;22;20006;-81
2023/04/05 10:43:37;;;;;;;3.95;1.75;;;;;;;;;;6370254;22;19998;-79
2023/04/05 10:46:05;;;;;;;8.32;2.20;;;16.60;37.60;;;;;;6370079;22;20069;-81
2023/04/05 10:48:43;;;;;;;2.92;1.80;;;16.50;37.60;;;;;;6370427;22;20397;-82
2023/04/05 10:51:11;;;;;;;3.05;2.05;;;16.50;37.50;;;;;;6370643;22;20392;-81
2023/04/05 10:53:37;;;;;;;7.68;2.30;;;16.50;38.00;;;;;;6370643;22;19995;-80
2023/04/05 10:56:04;;;;;;;5.70;2.20;;;16.40;37.40;;;;;;6370857;22;20002;-80
2023/04/05 10:58:32;;;;;;;3.33;2.05;;;16.30;38.00;;;;;;6369854;22;20048;-81
2023/04/05 11:00:58;;;;;;;3.88;1.90;;;16.10;38.10;;;;;;6369848;22;19994;-81
2023/04/05 11:03:46;;;;;;;4.03;1.95;;;16.00;38.30;;;;;;6369116;22;19999;-81
2023/04/05 11:06:19;;;;;;;3.35;1.65;;;15.90;38.10;;;;;;6369334;22;20647;-81
2023/04/05 11:08:47;;;;;;;4.50;1.85;;;15.80;38.10;;;;;;6369840;22;20017;-82
2023/04/05 11:11:44;;;;;;;5.18;1.92;;;15.50;38.20;;;;;;6363803;22;20060;-76
2023/04/05 11:14:35;;;;;;;6.70;2.55;;;15.50;37.70;;;;;;6339549;22;20088;-76
2023/04/05 11:17:02;;;;;;;3.97;2.03;;;15.50;38.30;;;;;;6367505;22;20022;-76
2023/04/05 11:19:46;;;;;;;4.07;2.25;;;15.40;38.80;;;;;;6367172;22;20342;-76
2023/04/05 11:22:23;;;;;;;3.78;1.92;;;15.40;38.80;;;;;;6366089;22;20006;-76
2023/04/05 11:24:56;;;;;;;5.00;2.22;;;15.50;39.00;;;;;;6367529;22;20009;-76
2023/04/05 11:27:39;;;;;;;5.28;2.10;;;15.60;38.70;;;;;;6368833;22;20003;-76
2023/04/05 11:30:06;;;;;;;3.53;1.90;;;15.80;38.00;;;;;;6368634;22;20001;-76
2023/04/05 11:32:40;;;;;;;2.40;2.00;;;15.80;37.80;;;;;;6368654;22;19998;-76
2023/04/05 11:35:11;;;;;;;6.20;2.63;;;16.00;38.30;;;;;;6368691;22;20281;-75
2023/04/05 11:38:07;;;;;;;2.97;1.80;;;16.00;38.00;;;;;;6368014;22;20028;-75
2023/04/05 11:40:35;;;;;;;3.92;1.80;;;16.20;37.50;;;;;;6368824;22;20014;-76
2023/04/05 11:43:06;;;;;;;5.20;2.45;;;16.20;37.90;;;;;;6368170;22;20328;-77
2023/04/05 11:45:34;;;;;;;5.57;2.42;;;16.40;37.60;;;;;;6368400;22;20009;-75
2023/04/05 11:48:09;;;;;;;4.65;2.00;;;16.60;37.30;;;;;;6368450;22;20362;-80
2023/04/05 11:50:35;;;;;;;4.53;2.03;;;17.40;36.70;;;;;;6369299;22;19995;-81
2023/04/05 11:53:16;;;;;;;3.53;2.10;;;18.20;35.10;;;;;;6370154;22;20393;-81
2023/04/05 11:55:51;;;;;;;4.32;2.20;;;18.60;34.40;;;;;;6370599;22;20077;-82
2023/04/05 11:58:22;;;;;;;2.85;1.90;;;18.60;34.40;;;;;;6371104;22;20025;-81
2023/04/05 12:01:02;;;;;;;3.95;1.80;;;19.00;34.80;;;;;;6370653;22;20006;-81
2023/04/05 12:03:28;;;;;;;4.57;2.13;;;19.30;33.70;;;;;;6370890;22;20006;-81
2023/04/05 12:05:56;;;;;;;4.28;2.13;;;19.70;33.20;;;;;;6370744;22;20223;-81
2023/04/05 12:08:23;;;;;;;4.25;2.45;;;20.20;33.50;;;;;;6370967;22;20323;-82
2023/04/05 12:10:54;;;;;;;4.60;2.33;;;20.80;32.50;;;;;;6370853;22;20001;-76
2023/04/05 12:13:28;;;;;;;3.63;2.20;;;21.20;31.60;;;;;;6369626;22;20006;-75
2023/04/05 12:15:56;;;;;;;5.18;2.33;;;21.70;31.40;;;;;;6369027;22;20016;-75
2023/04/05 12:18:25;;;;;;;4.05;2.05;;;22.10;30.80;;;;;;6371096;22;20457;-80
2023/04/05 12:20:50;;;;;;;4.30;2.22;;;22.40;30.40;;;;;;6342850;22;20029;-81
2023/04/05 12:23:17;;;;;;;8.32;2.25;;;22.80;30.50;;;;;;6370497;22;20324;-80
2023/04/05 12:25:46;;;;;;;5.97;2.63;;;23.20;30.20;;;;;;6369751;22;20002;-80
2023/04/05 12:28:12;;;;;;;6.03;2.38;;;23.60;29.80;;;;;;6369578;22;20006;-79
2023/04/05 12:30:48;;;;;;;3.05;2.13;;;23.90;29.30;;;;;;6370769;22;20515;-80
2023/04/05 12:33:14;;;;;;;5.15;2.50;;;24.30;28.50;;;;;;6371601;22;19994;-79
2023/04/05 12:35:40;;;;;;;3.15;2.40;;;24.70;28.00;;;;;;6371655;22;20406;-80
2023/04/05 12:38:07;;;;;;;4.97;2.45;;;24.90;28.30;;;;;;6370586;22;20002;-80
2023/04/05 12:40:34;;;;;;;5.10;2.60;;;25.30;27.90;;;;;;6370990;22;20091;-80
2023/04/05 12:43:04;;;;;;;3.53;2.08;;;25.60;27.30;;;;;;6370690;22;20030;-80
2023/04/05 12:45:38;;;;;;;;;;;26.00;27.60;;;;;;6371107;22;20048;-80
2023/04/05 12:48:13;;;;;;;5.70;2.53;;;26.10;26.40;;;;;;6369839;22;19983;-82
2023/04/05 12:50:44;;;;;;;4.00;2.33;;;26.30;26.40;;;;;;6342063;22;20033;-81
2023/04/05 12:53:19;;;;;;;5.45;2.88;;;26.30;26.70;;;;;;6370113;22;20081;-81
2023/04/05 12:55:56;;;;;;;4.80;2.55;;;26.30;26.60;;;;;;6370029;22;20032;-81
2023/04/05 12:58:33;;;;;;;4.22;2.33;;;26.30;25.90;;;;;;6370324;22;20420;-82
2023/04/05 13:00:59;;;;;;;7.57;2.70;;;26.40;26.20;;;;;;6369826;22;19995;-81